createdAt,value
2022-08-28T00:01:38.095Z,16.98
2022-08-28T00:04:07.179Z,18.73
2022-08-28T00:06:36.268Z,18.55
2022-08-28T00:09:08.028Z,18.48
2022-08-28T00:11:41.167Z,21.45
2022-08-28T00:14:12.581Z,18.70
2022-08-28T00:16:42.122Z,22.05
2022-08-28T00:19:11.285Z,20.45
2022-08-28T00:21:40.367Z,19.27
2022-08-28T00:24:11.234Z,18.92
2022-08-28T00:26:57.971Z,18.27
2022-08-28T00:29:27.050Z,17.40
2022-08-28T00:31:56.578Z,20.65
2022-08-28T00:34:33.009Z,20.80
2022-08-28T00:37:02.808Z,20.15
2022-08-28T00:39:33.273Z,22.73
2022-08-28T00:42:02.860Z,19.27
2022-08-28T00:44:32.017Z,20.23
2022-08-28T00:47:01.881Z,19.10
2022-08-28T00:49:35.856Z,19.63
2022-08-28T00:52:09.014Z,21.13
2022-08-28T00:54:59.402Z,19.80
2022-08-28T00:57:36.236Z,18.42
2022-08-28T01:00:08.261Z,19.95
2022-08-28T01:02:37.397Z,23.00
2022-08-28T01:05:09.606Z,18.85
2022-08-28T01:07:40.163Z,19.95
2022-08-28T01:10:15.278Z,22.92
2022-08-28T01:12:45.303Z,19.73
2022-08-28T01:15:18.682Z,20.77
2022-08-28T01:17:52.399Z,19.67
2022-08-28T01:20:29.778Z,20.17
2022-08-28T01:23:08.351Z,22.90
2022-08-28T01:25:41.090Z,22.17
2022-08-28T01:28:13.734Z,22.67
2022-08-28T01:30:46.062Z,23.58
2022-08-28T01:33:16.049Z,22.08
2022-08-28T01:35:49.012Z,20.55
2022-08-28T01:38:20.147Z,21.48
2022-08-28T01:40:59.126Z,20.60
2022-08-28T01:43:31.346Z,21.30
2022-08-28T01:46:04.371Z,21.38
2022-08-28T01:48:36.928Z,20.45
2022-08-28T01:51:07.078Z,22.40
2022-08-28T01:53:37.032Z,21.05
2022-08-28T01:56:14.975Z,22.80
2022-08-28T01:58:44.427Z,20.05
2022-08-28T02:01:15.925Z,20.92
2022-08-28T02:03:45.431Z,20.48
2022-08-28T02:06:16.927Z,20.80
2022-08-28T02:08:46.712Z,21.25
2022-08-28T02:11:17.951Z,21.45
2022-08-28T02:13:47.015Z,21.83
2022-08-28T02:16:20.214Z,21.42
2022-08-28T02:18:49.925Z,21.17
2022-08-28T02:21:19.251Z,22.83
2022-08-28T02:23:48.367Z,24.85
2022-08-28T02:26:19.295Z,23.00
2022-08-28T02:28:48.827Z,26.02
2022-08-28T02:31:18.153Z,24.88
2022-08-28T02:33:47.398Z,24.42
2022-08-28T02:36:17.522Z,28.05
2022-08-28T02:38:47.849Z,27.80
2022-08-28T02:41:18.452Z,29.05
2022-08-28T02:43:47.666Z,36.25
2022-08-28T02:46:16.895Z,26.00
2022-08-28T02:49:11.003Z,24.02
2022-08-28T02:51:40.714Z,28.23
2022-08-28T02:54:09.873Z,26.48
2022-08-28T02:56:40.924Z,25.67
2022-08-28T02:59:10.838Z,29.55
2022-08-28T03:01:39.998Z,25.77
2022-08-28T03:04:09.226Z,22.70
2022-08-28T03:06:38.325Z,29.35
2022-08-28T03:09:07.533Z,23.15
2022-08-28T03:11:36.933Z,25.05
2022-08-28T03:14:07.345Z,33.65
2022-08-28T03:16:36.514Z,26.88
2022-08-28T03:19:05.752Z,27.25
2022-08-28T03:21:34.802Z,32.38
2022-08-28T03:24:04.890Z,27.80
2022-08-28T03:26:34.125Z,28.23
2022-08-28T03:29:06.178Z,27.60
2022-08-28T03:31:36.156Z,29.00
2022-08-28T03:34:05.334Z,30.40
2022-08-28T03:36:35.369Z,32.30
2022-08-28T03:39:07.534Z,30.75
2022-08-28T03:41:36.933Z,31.05
2022-08-28T03:44:08.058Z,31.17
2022-08-28T03:46:37.481Z,34.95
2022-08-28T03:49:06.865Z,28.73
2022-08-28T03:51:36.437Z,29.67
2022-08-28T03:54:06.345Z,27.48
2022-08-28T03:56:35.532Z,31.55
2022-08-28T03:59:07.718Z,30.52
2022-08-28T04:01:38.241Z,27.42
2022-08-28T04:04:07.502Z,25.70
2022-08-28T04:06:36.783Z,32.25
2022-08-28T04:09:07.447Z,30.15
2022-08-28T04:11:42.864Z,33.10
2022-08-28T04:14:13.616Z,27.45
2022-08-28T04:16:42.908Z,25.80
2022-08-28T04:19:12.108Z,31.52
2022-08-28T04:21:41.167Z,27.40
2022-08-28T04:24:10.406Z,30.10
2022-08-28T04:26:39.635Z,36.95
2022-08-28T04:29:08.957Z,33.67
2022-08-28T04:31:39.749Z,28.20
2022-08-28T04:34:10.914Z,28.80
2022-08-28T04:36:41.321Z,25.73
2022-08-28T04:39:11.126Z,29.05
2022-08-28T04:41:40.270Z,27.25
2022-08-28T04:44:09.752Z,26.52
2022-08-28T04:46:40.174Z,28.35
2022-08-28T04:49:09.326Z,27.85
2022-08-28T04:51:42.053Z,26.83
2022-08-28T04:54:11.896Z,27.85
2022-08-28T04:56:42.398Z,25.20
2022-08-28T04:59:12.660Z,29.52
2022-08-28T05:01:44.575Z,32.88
2022-08-28T05:04:14.255Z,32.20
2022-08-28T05:06:46.356Z,27.95
2022-08-28T05:09:18.748Z,26.13
2022-08-28T05:11:49.582Z,28.40
2022-08-28T05:14:20.049Z,31.20
2022-08-28T05:16:53.121Z,26.23
2022-08-28T05:19:22.795Z,26.58
2022-08-28T05:21:52.894Z,25.30
2022-08-28T05:24:22.389Z,24.02
2022-08-28T05:26:51.543Z,26.25
2022-08-28T05:29:20.642Z,26.00
2022-08-28T05:31:54.029Z,32.53
2022-08-28T05:34:23.228Z,27.00
2022-08-28T05:36:52.380Z,24.75
2022-08-28T05:39:21.684Z,29.17
2022-08-28T05:41:51.016Z,32.95
2022-08-28T05:44:20.982Z,25.27
2022-08-28T05:46:51.005Z,29.05
2022-08-28T05:49:21.627Z,22.42
2022-08-28T05:51:51.343Z,24.90
2022-08-28T05:54:20.746Z,23.17
2022-08-28T05:56:50.303Z,22.73
2022-08-28T05:59:19.538Z,23.80
2022-08-28T06:01:50.611Z,22.88
2022-08-28T06:04:27.242Z,22.58
2022-08-28T06:06:57.875Z,25.48
2022-08-28T06:09:30.182Z,32.90
2022-08-28T06:12:03.197Z,28.25
2022-08-28T06:14:33.398Z,30.10
2022-08-28T06:17:05.027Z,27.10
2022-08-28T06:19:41.371Z,30.30
2022-08-28T06:22:14.736Z,29.20
2022-08-28T06:24:43.927Z,25.45
2022-08-28T06:27:13.002Z,24.38
2022-08-28T06:29:42.255Z,25.95
2022-08-28T06:32:11.817Z,23.42
2022-08-28T06:34:42.865Z,20.73
2022-08-28T06:37:12.908Z,24.38
2022-08-28T06:39:42.117Z,27.48
2022-08-28T06:42:11.277Z,17.25
2022-08-28T06:44:40.826Z,18.77
2022-08-28T06:47:11.112Z,21.25
2022-08-28T06:49:41.735Z,18.55
2022-08-28T06:52:10.977Z,16.90
2022-08-28T06:54:40.260Z,18.63
2022-08-28T06:57:15.197Z,18.35
2022-08-28T06:59:44.706Z,18.08
2022-08-28T07:02:14.082Z,17.23
2022-08-28T07:04:44.664Z,17.45
2022-08-28T07:07:31.257Z,23.02
2022-08-28T07:10:01.392Z,16.45
2022-08-28T07:12:30.573Z,20.60
2022-08-28T07:15:01.716Z,18.30
2022-08-28T07:17:32.651Z,16.80
2022-08-28T07:20:03.754Z,15.77
2022-08-28T07:22:33.430Z,21.02
2022-08-28T07:25:02.885Z,19.88
2022-08-28T07:27:32.451Z,24.70
2022-08-28T07:30:01.978Z,23.92
2022-08-28T07:32:31.189Z,19.88
2022-08-28T07:35:01.850Z,17.15
2022-08-28T07:37:32.806Z,23.33
2022-08-28T07:40:05.732Z,25.88
2022-08-28T07:42:54.981Z,18.85
2022-08-28T07:45:28.383Z,19.02
2022-08-28T07:47:57.586Z,20.17
2022-08-28T07:50:28.246Z,20.10
2022-08-28T07:52:57.746Z,17.42
2022-08-28T07:55:29.706Z,18.67
2022-08-28T07:57:58.863Z,15.43
2022-08-28T08:00:27.958Z,22.00
2022-08-28T08:02:58.121Z,16.90
2022-08-28T08:05:28.662Z,18.60
2022-08-28T08:07:58.041Z,18.10
2022-08-28T08:10:27.361Z,16.02
2022-08-28T08:13:03.224Z,16.02
2022-08-28T08:15:35.265Z,19.13
2022-08-28T08:18:04.623Z,15.95
2022-08-28T08:20:35.073Z,16.92
2022-08-28T08:23:04.178Z,16.60
2022-08-28T08:25:33.590Z,19.70
2022-08-28T08:28:04.649Z,14.95
2022-08-28T08:30:33.796Z,17.38
2022-08-28T08:33:03.048Z,22.35
2022-08-28T08:35:32.363Z,16.58
2022-08-28T08:38:03.115Z,18.42
2022-08-28T08:40:32.482Z,17.67
2022-08-28T08:43:03.491Z,17.27
2022-08-28T08:45:34.542Z,17.25
2022-08-28T08:48:04.554Z,17.52
2022-08-28T08:50:38.336Z,14.52
2022-08-28T08:53:25.111Z,15.60
2022-08-28T08:55:56.981Z,15.52
2022-08-28T08:58:29.854Z,17.35
2022-08-28T09:01:06.171Z,13.65
2022-08-28T09:03:54.475Z,16.10
2022-08-28T09:06:36.901Z,13.25
2022-08-28T09:09:19.200Z,15.27
2022-08-28T09:11:57.081Z,14.73
2022-08-28T09:14:38.091Z,18.03
2022-08-28T09:17:09.404Z,14.87
2022-08-28T09:19:39.031Z,14.40
2022-08-28T09:22:08.260Z,12.67
2022-08-28T09:24:42.354Z,15.13
2022-08-28T09:27:26.127Z,15.23
2022-08-28T09:30:07.220Z,15.63
2022-08-28T09:32:41.507Z,16.47
2022-08-28T09:35:19.705Z,16.00
2022-08-28T09:37:49.114Z,14.20
2022-08-28T09:40:26.984Z,15.67
2022-08-28T09:43:26.415Z,13.37
2022-08-28T09:46:00.036Z,12.00
2022-08-28T09:48:36.205Z,13.10
2022-08-28T09:51:08.735Z,15.27
2022-08-28T09:53:43.875Z,13.25
2022-08-28T09:56:19.568Z,14.17
2022-08-28T09:58:53.689Z,10.10
2022-08-28T10:01:54.472Z,14.50
2022-08-28T10:04:42.070Z,13.63
2022-08-28T10:07:18.300Z,15.03
2022-08-28T10:09:57.133Z,13.80
2022-08-28T10:12:38.556Z,14.53
2022-08-28T10:15:18.079Z,13.37
2022-08-28T10:18:17.431Z,16.40
2022-08-28T10:20:55.433Z,16.00
2022-08-28T10:23:36.204Z,18.63
2022-08-28T10:26:25.161Z,21.83
2022-08-28T10:29:08.378Z,17.10
2022-08-28T10:31:48.206Z,18.73
2022-08-28T10:34:40.039Z,15.47
2022-08-28T10:37:21.385Z,14.53
2022-08-28T10:39:56.411Z,15.33
2022-08-28T10:42:35.824Z,14.57
2022-08-28T10:45:13.910Z,13.90
2022-08-28T10:47:48.336Z,13.70
2022-08-28T10:50:24.052Z,13.53
2022-08-28T10:53:01.979Z,10.23
2022-08-28T10:55:37.605Z,10.83
2022-08-28T10:58:24.390Z,12.93
2022-08-28T11:01:01.066Z,25.83
2022-08-28T11:03:39.367Z,14.57
2022-08-28T11:06:16.569Z,12.90
2022-08-28T11:08:55.430Z,12.17
2022-08-28T11:11:48.638Z,15.20
2022-08-28T11:14:28.009Z,12.87
2022-08-28T11:17:02.765Z,12.20
2022-08-28T11:20:00.269Z,12.33
2022-08-28T11:22:34.744Z,10.87
2022-08-28T11:25:15.110Z,14.07
2022-08-28T11:28:18.746Z,10.93
2022-08-28T11:30:50.818Z,10.07
2022-08-28T11:33:40.939Z,12.07
2022-08-28T11:36:52.718Z,12.97
2022-08-28T11:39:23.101Z,10.87
2022-08-28T11:42:37.320Z,10.80
2022-08-28T11:45:07.448Z,11.73
2022-08-28T11:47:56.606Z,10.93
2022-08-28T11:50:33.285Z,12.73
2022-08-28T11:53:46.084Z,8.60
2022-08-28T11:56:41.984Z,8.77
2022-08-28T11:59:57.934Z,9.93
2022-08-28T12:02:51.741Z,11.90
2022-08-28T12:05:56.662Z,10.93
2022-08-28T12:09:15.579Z,14.30
2022-08-28T12:12:15.052Z,10.13
2022-08-28T12:15:11.286Z,14.43
2022-08-28T12:17:52.789Z,10.30
2022-08-28T12:20:30.795Z,14.17
2022-08-28T12:23:05.283Z,10.50
2022-08-28T12:39:18.177Z,9.80
2022-08-28T12:41:47.328Z,8.20
2022-08-28T12:44:16.807Z,11.60
2022-08-28T12:51:23.110Z,13.20
2022-08-28T12:53:56.933Z,10.83
2022-08-28T13:01:29.944Z,12.60
2022-08-28T13:04:03.125Z,12.50
2022-08-28T13:06:38.911Z,10.90
2022-08-28T13:09:18.594Z,9.80
2022-08-28T13:11:51.225Z,10.23
2022-08-28T13:14:39.012Z,11.70
2022-08-28T13:17:11.077Z,13.10
2022-08-28T13:19:40.830Z,7.50
2022-08-28T13:22:34.308Z,14.67
2022-08-28T13:25:05.433Z,8.30
2022-08-28T13:27:35.152Z,10.73
2022-08-28T13:30:23.336Z,8.17
2022-08-28T13:37:47.825Z,8.03
2022-08-28T13:43:20.846Z,7.27
2022-08-28T13:45:59.221Z,10.87
2022-08-28T13:48:30.010Z,9.57
2022-08-28T13:51:04.889Z,9.93
2022-08-28T13:53:35.531Z,8.30
2022-08-28T13:56:05.737Z,7.73
2022-08-28T13:58:34.839Z,7.30
2022-08-28T14:01:05.774Z,9.30
2022-08-28T14:03:38.800Z,7.90
2022-08-28T14:06:17.055Z,10.60
2022-08-28T14:08:47.431Z,8.03
2022-08-28T14:11:17.492Z,8.97
2022-08-28T14:13:47.178Z,6.57
2022-08-28T14:16:26.120Z,6.80
2022-08-28T14:18:56.667Z,8.57
2022-08-28T14:21:25.903Z,7.77
2022-08-28T14:23:55.113Z,7.10
2022-08-28T14:26:24.193Z,6.40
2022-08-28T14:28:54.678Z,7.77
2022-08-28T14:31:23.873Z,7.83
2022-08-28T14:33:58.883Z,7.93
2022-08-28T14:36:34.458Z,7.93
2022-08-28T14:39:07.875Z,9.57
2022-08-28T14:41:38.083Z,8.23
2022-08-28T14:44:09.081Z,6.87
2022-08-28T14:46:39.126Z,6.30
2022-08-28T14:49:12.159Z,10.37
2022-08-28T14:51:43.272Z,8.00
2022-08-28T14:54:15.841Z,7.40
2022-08-28T14:56:46.412Z,6.67
2022-08-28T14:59:24.011Z,6.27
2022-08-28T15:01:55.253Z,9.93
2022-08-28T15:04:27.552Z,7.07
2022-08-28T15:07:00.230Z,7.30
2022-08-28T15:09:30.199Z,8.47
2022-08-28T15:11:59.544Z,8.23
2022-08-28T15:14:29.213Z,6.80
2022-08-28T15:17:00.051Z,7.47
2022-08-28T15:19:31.013Z,7.37
2022-08-28T15:22:01.015Z,8.00
2022-08-28T15:24:34.307Z,6.63
2022-08-28T15:27:03.771Z,7.20
2022-08-28T15:29:32.903Z,7.43
2022-08-28T15:32:03.574Z,8.40
2022-08-28T15:34:34.361Z,7.43
2022-08-28T15:37:03.517Z,6.73
2022-08-28T15:39:54.750Z,7.90
2022-08-28T15:42:24.074Z,7.87
2022-08-28T15:44:53.234Z,7.13
2022-08-28T15:47:22.458Z,6.70
2022-08-28T15:49:57.315Z,6.90
2022-08-28T15:52:26.454Z,6.90
2022-08-28T15:54:55.585Z,6.07
2022-08-28T15:57:24.688Z,5.97
2022-08-28T15:59:54.384Z,6.90
2022-08-28T16:02:25.652Z,6.43
2022-08-28T16:04:56.316Z,7.50
2022-08-28T16:07:26.445Z,7.37
2022-08-28T16:09:55.685Z,6.53
2022-08-28T16:12:25.507Z,7.10
2022-08-28T16:14:54.667Z,7.17
2022-08-28T16:17:23.753Z,7.20
2022-08-28T16:19:52.800Z,9.93
2022-08-28T16:22:23.261Z,6.50
2022-08-28T16:24:52.688Z,8.17
2022-08-28T16:27:21.762Z,6.63
2022-08-28T16:29:52.726Z,6.30
2022-08-28T16:32:22.960Z,7.20
2022-08-28T16:34:52.458Z,7.00
2022-08-28T16:37:23.213Z,8.90
2022-08-28T16:39:55.922Z,7.13
2022-08-28T16:42:28.631Z,6.27
2022-08-28T16:45:03.352Z,6.93
2022-08-28T16:47:35.610Z,6.20
2022-08-28T16:50:08.874Z,6.50
2022-08-28T16:52:39.895Z,6.63
2022-08-28T16:55:11.348Z,7.57
2022-08-28T16:57:41.045Z,6.33
2022-08-28T17:00:13.754Z,5.50
2022-08-28T17:02:43.845Z,6.40
2022-08-28T17:05:17.062Z,6.67
2022-08-28T17:07:48.631Z,7.20
2022-08-28T17:10:22.398Z,7.80
2022-08-28T17:12:52.140Z,9.20
2022-08-28T17:15:22.304Z,8.70
2022-08-28T17:17:51.429Z,7.03
2022-08-28T17:20:38.588Z,9.50
2022-08-28T17:23:09.174Z,8.50
2022-08-28T17:25:38.530Z,6.90
2022-08-28T17:28:10.911Z,6.70
2022-08-28T17:30:40.410Z,11.67
2022-08-28T17:33:09.456Z,6.83
2022-08-28T17:35:41.984Z,6.10
2022-08-28T17:38:13.582Z,6.40
2022-08-28T17:40:43.208Z,6.90
2022-08-28T17:43:12.331Z,7.53
2022-08-28T17:45:41.430Z,7.57
2022-08-28T17:48:10.592Z,6.63
2022-08-28T17:50:40.241Z,10.27
2022-08-28T17:53:10.018Z,10.20
2022-08-28T17:55:40.922Z,7.70
2022-08-28T17:58:10.230Z,7.73
2022-08-28T18:00:40.965Z,6.80
2022-08-28T18:03:10.382Z,6.93
2022-08-28T18:05:41.167Z,6.23
2022-08-28T18:08:10.424Z,7.80
2022-08-28T18:10:41.070Z,6.97
2022-08-28T18:13:10.372Z,6.53
2022-08-28T18:15:40.965Z,5.33
2022-08-28T18:18:13.828Z,6.87
2022-08-28T18:20:43.625Z,7.20
2022-08-28T18:23:14.519Z,6.17
2022-08-28T18:25:50.651Z,8.17
2022-08-28T18:28:23.767Z,6.83
2022-08-28T18:30:54.016Z,8.93
2022-08-28T18:33:24.949Z,6.80
2022-08-28T18:35:54.836Z,6.77
2022-08-28T18:38:28.247Z,10.13
2022-08-28T18:40:59.647Z,6.53
2022-08-28T18:43:28.856Z,7.40
2022-08-28T18:45:57.945Z,6.40
2022-08-28T18:48:26.974Z,8.30
2022-08-28T18:50:56.168Z,11.27
2022-08-28T18:53:26.496Z,9.70
2022-08-28T18:55:56.294Z,8.80
2022-08-28T18:58:29.400Z,8.63
2022-08-28T19:00:59.455Z,6.27
2022-08-28T19:03:29.053Z,15.67
2022-08-28T19:05:58.197Z,6.30
2022-08-28T19:08:27.900Z,8.20
2022-08-28T19:10:57.513Z,6.60
2022-08-28T19:13:27.781Z,7.40
2022-08-28T19:15:58.332Z,7.67
2022-08-28T19:18:28.651Z,7.50
2022-08-28T19:21:05.704Z,7.43
2022-08-28T19:23:35.234Z,8.55
2022-08-28T19:26:04.757Z,10.03
2022-08-28T19:28:34.185Z,9.33
2022-08-28T19:31:06.197Z,8.53
2022-08-28T19:33:35.328Z,10.05
2022-08-28T19:36:06.532Z,8.65
2022-08-28T19:38:35.837Z,8.13
2022-08-28T19:41:07.932Z,7.25
2022-08-28T19:43:43.051Z,6.65
2022-08-28T19:46:20.135Z,8.57
2022-08-28T19:48:50.398Z,7.67
2022-08-28T19:51:23.643Z,8.95
2022-08-28T19:53:59.057Z,9.48
2022-08-28T19:56:29.908Z,8.40
2022-08-28T19:59:01.943Z,10.65
2022-08-28T20:01:37.835Z,8.98
2022-08-28T20:04:10.226Z,8.02
2022-08-28T20:06:39.479Z,8.48
2022-08-28T20:09:12.698Z,10.65
2022-08-28T20:11:44.959Z,8.25
2022-08-28T20:14:15.725Z,8.95
2022-08-28T20:16:50.855Z,8.35
2022-08-28T20:19:21.097Z,9.25
2022-08-28T20:21:51.459Z,11.10
2022-08-28T20:24:24.027Z,8.65
2022-08-28T20:26:53.914Z,9.00
2022-08-28T20:29:24.066Z,8.63
2022-08-28T20:31:57.366Z,11.45
2022-08-28T20:34:26.573Z,9.25
2022-08-28T20:36:58.217Z,10.52
2022-08-28T20:39:30.095Z,10.27
2022-08-28T20:41:59.218Z,10.10
2022-08-28T20:44:28.260Z,13.20
2022-08-28T20:46:58.914Z,14.93
2022-08-28T20:49:28.053Z,9.70
2022-08-28T20:51:58.628Z,9.18
2022-08-28T20:54:30.726Z,11.77
2022-08-28T20:57:04.453Z,13.57
2022-08-28T20:59:40.342Z,11.18
2022-08-28T21:02:15.330Z,10.45
2022-08-28T21:04:46.613Z,11.13
2022-08-28T21:07:18.276Z,15.27
2022-08-28T21:10:05.283Z,10.55
2022-08-28T21:12:38.556Z,12.07
2022-08-28T21:15:11.207Z,11.40
2022-08-28T21:17:42.235Z,11.23
2022-08-28T21:20:15.130Z,13.77
2022-08-28T21:22:45.294Z,13.45
2022-08-28T21:25:15.773Z,11.45
2022-08-28T21:27:46.371Z,14.98
2022-08-28T21:30:21.841Z,11.88
2022-08-28T21:32:52.889Z,17.65
2022-08-28T21:35:22.247Z,14.70
2022-08-28T21:37:51.402Z,10.07
2022-08-28T21:40:20.978Z,10.45
2022-08-28T21:42:50.249Z,14.05
2022-08-28T21:45:20.009Z,11.60
2022-08-28T21:47:49.197Z,16.40
2022-08-28T21:50:20.669Z,10.88
2022-08-28T21:52:49.748Z,12.57
2022-08-28T21:55:18.850Z,16.05
2022-08-28T21:57:47.993Z,10.90
2022-08-28T22:00:22.687Z,9.93
2022-08-28T22:02:51.914Z,13.93
2022-08-28T22:05:22.628Z,12.32
2022-08-28T22:07:51.897Z,13.27
2022-08-28T22:10:20.941Z,10.88
2022-08-28T22:12:50.437Z,11.82
2022-08-28T22:15:19.753Z,11.32
2022-08-28T22:17:49.001Z,14.60
2022-08-28T22:20:18.313Z,9.88
2022-08-28T22:23:06.274Z,9.90
2022-08-28T22:25:40.585Z,11.27
2022-08-28T22:28:10.943Z,10.95
2022-08-28T22:30:40.135Z,14.10
2022-08-28T22:33:10.785Z,10.60
2022-08-28T22:35:40.345Z,10.80
2022-08-28T22:38:11.606Z,10.52
2022-08-28T22:40:40.754Z,11.00
2022-08-28T22:43:10.132Z,10.93
2022-08-28T22:45:39.296Z,10.77
2022-08-28T22:48:08.608Z,12.95
2022-08-28T22:50:37.789Z,12.00
2022-08-28T22:53:06.999Z,10.75
2022-08-28T22:55:43.229Z,10.80
2022-08-28T22:58:14.294Z,17.40
2022-08-28T23:00:43.659Z,9.68
2022-08-28T23:03:12.826Z,12.40
2022-08-28T23:05:41.884Z,9.50
2022-08-28T23:08:11.125Z,10.27
2022-08-28T23:10:58.680Z,15.38
2022-08-28T23:13:28.802Z,13.50
2022-08-28T23:15:58.566Z,9.10
2022-08-28T23:18:28.487Z,9.32
2022-08-28T23:20:58.077Z,12.73
2022-08-28T23:23:27.133Z,9.35
2022-08-28T23:25:57.662Z,11.05
2022-08-28T23:28:26.769Z,11.15
2022-08-28T23:30:55.862Z,13.38
2022-08-28T23:33:26.026Z,12.88
2022-08-28T23:35:55.166Z,9.73
2022-08-28T23:38:24.290Z,10.00
2022-08-28T23:40:56.838Z,10.95
2022-08-28T23:43:26.143Z,10.05
2022-08-28T23:45:55.213Z,11.27
2022-08-28T23:48:25.237Z,12.77
2022-08-28T23:50:55.408Z,13.30
2022-08-28T23:53:24.407Z,10.05
2022-08-28T23:55:53.651Z,16.08
2022-08-28T23:58:25.721Z,11.38
